地図

経路データ

SID SEASON NUMBER BASIN SUBBASIN NAME ISO_TIME NATURE LAT LON WMO_WIND WMO_PRES WMO_AGENCY TRACK_TYPE DIST2LAND LANDFALL IFLAG USA_AGENCY USA_ATCF_ID USA_LAT USA_LON USA_RECORD USA_STATUS USA_WIND USA_PRES USA_SSHS USA_R34_NE USA_R34_SE USA_R34_SW USA_R34_NW USA_R50_NE USA_R50_SE USA_R50_SW USA_R50_NW USA_R64_NE USA_R64_SE USA_R64_SW USA_R64_NW USA_POCI USA_ROCI USA_RMW USA_EYE TOKYO_LAT TOKYO_LON TOKYO_GRADE TOKYO_WIND TOKYO_PRES TOKYO_R50_DIR TOKYO_R50_LONG TOKYO_R50_SHORT TOKYO_R30_DIR TOKYO_R30_LONG TOKYO_R30_SHORT TOKYO_LAND CMA_LAT CMA_LON CMA_CAT CMA_WIND CMA_PRES HKO_LAT HKO_LON HKO_CAT HKO_WIND HKO_PRES NEWDELHI_LAT NEWDELHI_LON NEWDELHI_GRADE NEWDELHI_WIND NEWDELHI_PRES NEWDELHI_CI NEWDELHI_DP NEWDELHI_POCI REUNION_LAT REUNION_LON REUNION_TYPE REUNION_WIND REUNION_PRES REUNION_TNUM REUNION_CI REUNION_RMW REUNION_R34_NE REUNION_R34_SE REUNION_R34_SW REUNION_R34_NW REUNION_R50_NE REUNION_R50_SE REUNION_R50_SW REUNION_R50_NW REUNION_R64_NE REUNION_R64_SE REUNION_R64_SW REUNION_R64_NW BOM_LAT BOM_LON BOM_TYPE BOM_WIND BOM_PRES BOM_TNUM BOM_CI BOM_RMW BOM_R34_NE BOM_R34_SE BOM_R34_SW BOM_R34_NW BOM_R50_NE BOM_R50_SE BOM_R50_SW BOM_R50_NW BOM_R64_NE BOM_R64_SE BOM_R64_SW BOM_R64_NW BOM_ROCI BOM_POCI BOM_EYE BOM_POS_METHOD BOM_PRES_METHOD NADI_LAT NADI_LON NADI_CAT NADI_WIND NADI_PRES WELLINGTON_LAT WELLINGTON_LON WELLINGTON_WIND WELLINGTON_PRES DS824_LAT DS824_LON DS824_STAGE DS824_WIND DS824_PRES TD9636_LAT TD9636_LON TD9636_STAGE TD9636_WIND TD9636_PRES TD9635_LAT TD9635_LON TD9635_WIND TD9635_PRES TD9635_ROCI NEUMANN_LAT NEUMANN_LON NEUMANN_CLASS NEUMANN_WIND NEUMANN_PRES MLC_LAT MLC_LON MLC_CLASS MLC_WIND MLC_PRES USA_GUST BOM_GUST BOM_GUST_PER REUNION_GUST REUNION_GUST_PER USA_SEAHGT USA_SEARAD_NE USA_SEARAD_SE USA_SEARAD_SW USA_SEARAD_NW STORM_SPEED STORM_DIR
1969241N12298 1969 64 NA CS FRANCELIA 1969-08-29 00:00:00 TS 11.5000 -62.0000 30 hurdat_atl main 92 89 O_____________ hurdat_atl AL131969 11.5000 -62.0000 TD 30 -1 15 283
1969241N12298 1969 64 NA CS FRANCELIA 1969-08-29 03:00:00 TS 11.6679 -62.7497 main 111 111 P_____________ AL131969 11.6679 -62.7497 TD 30 -1 15 282
1969241N12298 1969 64 NA CS FRANCELIA 1969-08-29 06:00:00 TS 11.8000 -63.5000 30 hurdat_atl main 130 130 O_____________ hurdat_atl AL131969 11.8000 -63.5000 TD 30 -1 15 278
1969241N12298 1969 64 NA CS FRANCELIA 1969-08-29 09:00:00 TS 11.8848 -64.2503 main 146 146 P_____________ AL131969 11.8848 -64.2503 TD 30 -1 15 278
1969241N12298 1969 64 NA CS FRANCELIA 1969-08-29 12:00:00 TS 12.0000 -65.0000 30 hurdat_atl main 179 176 O_____________ hurdat_atl AL131969 12.0000 -65.0000 TD 30 -1 14 283
1969241N12298 1969 64 NA CS FRANCELIA 1969-08-29 15:00:00 TS 12.2114 -65.6606 main 182 182 P_____________ AL131969 12.2114 -65.6606 TD 30 -1 16 289
1969241N12298 1969 64 NA CS FRANCELIA 1969-08-29 18:00:00 TS 12.5000 -66.5000 30 1005 hurdat_atl main 212 189 O_____________ hurdat_atl AL131969 12.5000 -66.5000 TD 30 1005 -1 22 287
1969241N12298 1969 64 NA CS FRANCELIA 1969-08-29 21:00:00 TS 12.8517 -67.8493 main 199 148 P_____________ AL131969 12.8517 -67.8493 TD 30 -1 27 285
1969241N12298 1969 64 NA CS FRANCELIA 1969-08-30 00:00:00 TS 13.2000 -69.2000 30 hurdat_atl main 144 134 O_____________ hurdat_atl AL131969 13.2000 -69.2000 TD 30 -1 22 286
1969241N12298 1969 64 NA CS FRANCELIA 1969-08-30 03:00:00 TS 13.4562 -70.0406 main 156 156 P_____________ AL131969 13.4562 -70.0406 TD 30 -1 15 289
1969241N12298 1969 64 NA CS FRANCELIA 1969-08-30 06:00:00 TS 13.7000 -70.7000 30 hurdat_atl main 169 164 O_____________ hurdat_atl AL131969 13.7000 -70.7000 TD 30 -1 14 292
1969241N12298 1969 64 NA CS FRANCELIA 1969-08-30 09:00:00 TS 13.9918 -71.4053 main 179 179 P_____________ AL131969 13.9918 -71.4053 TD 35 0 16 292
1969241N12298 1969 64 NA CS FRANCELIA 1969-08-30 12:00:00 TS 14.3000 -72.2000 40 hurdat_atl main 219 219 O_____________ hurdat_atl AL131969 14.3000 -72.2000 TS 40 0 19 289
1969241N12298 1969 64 NA CS FRANCELIA 1969-08-30 15:00:00 TS 14.6156 -73.2497 main 288 288 P_____________ AL131969 14.6156 -73.2497 TS 45 0 21 286
1969241N12298 1969 64 NA CS FRANCELIA 1969-08-30 18:00:00 TS 14.9000 -74.3000 50 1000 hurdat_atl main 349 334 O_____________ hurdat_atl AL131969 14.9000 -74.3000 TS 50 1000 0 19 285
1969241N12298 1969 64 NA CS FRANCELIA 1969-08-30 21:00:00 TS 15.1221 -75.1402 main 334 294 P_____________ AL131969 15.1221 -75.1402 TS 52 0 15 285
1969241N12298 1969 64 NA CS FRANCELIA 1969-08-31 00:00:00 TS 15.3000 -75.8000 55 hurdat_atl main 294 274 O_____________ hurdat_atl AL131969 15.3000 -75.8000 TS 55 0 12 286
1969241N12298 1969 64 NA CS FRANCELIA 1969-08-31 03:00:00 TS 15.4496 -76.2953 main 274 240 P_____________ AL131969 15.4496 -76.2953 TS 57 0 9 289
1969241N12298 1969 64 NA CS FRANCELIA 1969-08-31 06:00:00 TS 15.6000 -76.7000 60 hurdat_atl main 240 212 O_____________ hurdat_atl AL131969 15.6000 -76.7000 TS 60 0 9 294
1969241N12298 1969 64 NA CS FRANCELIA 1969-08-31 09:00:00 TS 15.8074 -77.1425 main 212 192 P_____________ AL131969 15.8074 -77.1425 TS 60 0 10 295
1969241N12298 1969 64 NA CS FRANCELIA 1969-08-31 12:00:00 TS 16.0000 -77.6000 60 hurdat_atl main 194 190 O_____________ hurdat_atl AL131969 16.0000 -77.6000 TS 60 0 10 288
1969241N12298 1969 64 NA CS FRANCELIA 1969-08-31 15:00:00 TS 16.1150 -78.1076 main 203 200 P_____________ AL131969 16.1150 -78.1076 TS 60 0 10 282
1969241N12298 1969 64 NA CS FRANCELIA 1969-08-31 18:00:00 TS 16.2000 -78.6000 60 hurdat_atl main 212 212 O_____________ hurdat_atl AL131969 16.2000 -78.6000 TS 60 0 9 281
1969241N12298 1969 64 NA CS FRANCELIA 1969-08-31 21:00:00 TS 16.2846 -78.9852 main 221 218 P_____________ AL131969 16.2846 -78.9852 TS 57 0 8 285
1969241N12298 1969 64 NA CS FRANCELIA 1969-09-01 00:00:00 TS 16.4000 -79.4000 55 1002 hurdat_atl main 227 227 O_____________ hurdat_atl AL131969 16.4000 -79.4000 TS 55 1002 0 10 288
1969241N12298 1969 64 NA CS FRANCELIA 1969-09-01 03:00:00 TS 16.5924 -79.9549 main 246 246 P_____________ AL131969 16.5924 -79.9549 TS 55 0 12 289
1969241N12298 1969 64 NA CS FRANCELIA 1969-09-01 06:00:00 TS 16.8000 -80.6000 55 hurdat_atl main 281 281 O_____________ hurdat_atl AL131969 16.8000 -80.6000 TS 55 0 13 286
1969241N12298 1969 64 NA CS FRANCELIA 1969-09-01 09:00:00 TS 16.9651 -81.3000 main 294 250 P_____________ AL131969 16.9651 -81.3000 TS 57 0 14 283
1969241N12298 1969 64 NA CS FRANCELIA 1969-09-01 12:00:00 TS 17.1000 -82.0000 60 hurdat_atl main 250 229 O_____________ hurdat_atl AL131969 17.1000 -82.0000 TS 60 0 13 282
1969241N12298 1969 64 NA CS FRANCELIA 1969-09-01 15:00:00 TS 17.2370 -82.5924 main 229 204 P_____________ AL131969 17.2370 -82.5924 TS 62 0 12 280
1969241N12298 1969 64 NA CS FRANCELIA 1969-09-01 18:00:00 TS 17.3000 -83.2000 65 995 hurdat_atl main 204 162 O_____________ hurdat_atl AL131969 17.3000 -83.2000 HU 65 995 1 13 270
1969241N12298 1969 64 NA CS FRANCELIA 1969-09-01 21:00:00 TS 17.2379 -83.9803 main 159 134 P_____________ AL131969 17.2379 -83.9803 HU 70 993 1 14 262
1969241N12298 1969 64 NA CS FRANCELIA 1969-09-02 00:00:00 TS 17.1000 -84.7000 75 hurdat_atl main 134 123 I_____________ hurdat_atl AL131969 17.1000 -84.7000 HU 75 992 1 12 256
1969241N12298 1969 64 NA CS FRANCELIA 1969-09-02 03:00:00 TS 16.9496 -85.1599 main 111 100 P_____________ AL131969 16.9496 -85.1599 HU 77 991 1 8 249
1969241N12298 1969 64 NA CS FRANCELIA 1969-09-02 06:00:00 TS 16.8000 -85.5000 80 990 hurdat_atl main 100 89 O_____________ hurdat_atl AL131969 16.8000 -85.5000 HU 80 990 1 7 249
1969241N12298 1969 64 NA CS FRANCELIA 1969-09-02 09:00:00 TS 16.6925 -85.8724 main 89 79 P_____________ AL131969 16.6925 -85.8724 HU 82 985 1 7 253
1969241N12298 1969 64 NA CS FRANCELIA 1969-09-02 12:00:00 TS 16.6000 -86.2000 85 hurdat_atl main 84 78 I_____________ hurdat_atl AL131969 16.6000 -86.2000 HU 85 981 2 6 250
1969241N12298 1969 64 NA CS FRANCELIA 1969-09-02 15:00:00 TS 16.4923 -86.4350 main 78 67 P_____________ AL131969 16.4923 -86.4350 HU 92 977 2 5 247
1969241N12298 1969 64 NA CS FRANCELIA 1969-09-02 18:00:00 TS 16.4000 -86.7000 100 973 hurdat_atl main 70 55 O_____________ hurdat_atl AL131969 16.4000 -86.7000 HU 100 973 3 7 257
1969241N12298 1969 64 NA CS FRANCELIA 1969-09-02 21:00:00 TS 16.3353 -87.1650 main 55 55 P_____________ AL131969 16.3353 -87.1650 HU 97 3 9 263
1969241N12298 1969 64 NA CS FRANCELIA 1969-09-03 00:00:00 TS 16.3000 -87.6000 95 hurdat_atl main 55 55 O_____________ hurdat_atl AL131969 16.3000 -87.6000 HU 95 2 6 267
1969241N12298 1969 64 NA CS FRANCELIA 1969-09-03 03:00:00 TS 16.2998 -87.7949 main 55 55 P_____________ AL131969 16.2998 -87.7949 HU 90 2 3 270
1969241N12298 1969 64 NA CS FRANCELIA 1969-09-03 06:00:00 TS 16.3000 -87.9000 85 hurdat_atl main 55 48 O_____________ hurdat_atl AL131969 16.3000 -87.9000 HU 85 2 2 258
1969241N12298 1969 64 NA CS FRANCELIA 1969-09-03 09:00:00 TS 16.2500 -88.0425 main 44 39 P_____________ AL131969 16.2500 -88.0425 HU 85 2 3 251
1969241N12298 1969 64 NA CS FRANCELIA 1969-09-03 12:00:00 TS 16.2000 -88.2000 85 hurdat_atl main 39 21 O_____________ hurdat_atl AL131969 16.2000 -88.2000 HU 85 2 4 262
1969241N12298 1969 64 NA CS FRANCELIA 1969-09-03 15:00:00 TS 16.2000 -88.4075 main 21 0 P_____________ AL131969 16.2000 -88.4075 HU 85 2 4 270
1969241N12298 1969 64 NA CS FRANCELIA 1969-09-03 18:00:00 TS 16.2000 -88.6000 85 hurdat_atl main 0 0 O_____________ hurdat_atl AL131969 16.2000 -88.6000 HU 85 2 3 260
1969241N12298 1969 64 NA CS FRANCELIA 1969-09-03 21:00:00 TS 16.1499 -88.7000 main 10 0 P_____________ AL131969 16.1499 -88.7000 HU 77 1 2 243
1969241N12298 1969 64 NA CS FRANCELIA 1969-09-04 00:00:00 TS 16.1000 -88.8000 70 hurdat_atl main 0 0 O_____________ hurdat_atl AL131969 16.1000 -88.8000 HU 70 1 3 256
1969241N12298 1969 64 NA NA FRANCELIA 1969-09-04 03:00:00 TS 16.0850 -88.9775 main 0 0 P_____________ AL131969 16.0850 -88.9775 HU 65 1 4 270
1969241N12298 1969 64 NA NA FRANCELIA 1969-09-04 06:00:00 TS 16.1000 -89.2000 60 hurdat_atl main 0 0 O_____________ hurdat_atl AL131969 16.1000 -89.2000 TS 60 0 5 277
1969241N12298 1969 64 NA NA FRANCELIA 1969-09-04 09:00:00 TS 16.1426 -89.4450 main 0 0 P_____________ AL131969 16.1426 -89.4450 TS 50 0 5 282
1969241N12298 1969 64 NA NA FRANCELIA 1969-09-04 12:00:00 TS 16.2000 -89.7000 40 hurdat_atl main 0 O_____________ hurdat_atl AL131969 16.2000 -89.7000 TS 40 0 5 283

IBTrACS Databaseについて

本データベースは、米国NOAAが公開する1842年以降の世界の熱帯低気圧のベストトラックデータアーカイブInternational Best Track Archive for Climate Stewardship (IBTrACS)を、ウェブで閲覧しやすい形式に変換したものです。

最終更新日:2021-12-01